createdAt,value
2018-04-07T00:02:19.102Z,91.14
2018-04-07T00:04:46.746Z,91.08
2018-04-07T00:07:14.469Z,91.14
2018-04-07T00:09:42.056Z,91.08
2018-04-07T00:12:09.569Z,89.64
2018-04-07T00:14:37.073Z,89.36
2018-04-07T00:17:04.603Z,88.77
2018-04-07T00:19:32.136Z,88.01
2018-04-07T00:21:59.667Z,88.66
2018-04-07T00:24:27.199Z,88.58
2018-04-07T00:26:54.706Z,88.73
2018-04-07T00:29:22.375Z,90.21
2018-04-07T00:31:49.923Z,90.90
2018-04-07T00:34:17.433Z,90.26
2018-04-07T00:36:44.961Z,91.89
2018-04-07T00:39:12.535Z,91.83
2018-04-07T00:41:40.052Z,91.56
2018-04-07T00:44:07.588Z,91.31
2018-04-07T00:46:35.114Z,92.03
2018-04-07T00:49:02.852Z,92.22
2018-04-07T00:51:30.364Z,92.24
2018-04-07T00:53:57.986Z,92.38
2018-04-07T00:56:26.414Z,92.53
2018-04-07T00:58:53.946Z,92.76
2018-04-07T01:01:21.566Z,93.21
2018-04-07T01:03:49.093Z,93.23
2018-04-07T01:06:16.597Z,92.55
2018-04-07T01:08:44.313Z,91.81
2018-04-07T01:11:11.848Z,91.23
2018-04-07T01:13:39.390Z,91.18
2018-04-07T01:16:07.048Z,92.28
2018-04-07T01:18:34.689Z,91.75
2018-04-07T01:21:02.409Z,91.01
2018-04-07T01:23:30.018Z,90.26
2018-04-07T01:25:57.557Z,89.53
2018-04-07T01:28:25.082Z,91.14
2018-04-07T01:30:52.700Z,91.30
2018-04-07T01:33:20.286Z,91.76
2018-04-07T01:35:47.814Z,91.07
2018-04-07T01:38:15.537Z,89.43
2018-04-07T01:40:43.111Z,89.83
2018-04-07T01:43:10.623Z,89.88
2018-04-07T01:45:38.307Z,89.09
2018-04-07T01:48:05.914Z,88.54
2018-04-07T01:50:33.679Z,87.56
2018-04-07T01:53:02.742Z,86.45
2018-04-07T01:55:33.395Z,87.59
2018-04-07T01:58:01.663Z,88.41
2018-04-07T02:00:30.549Z,88.75
2018-04-07T02:02:58.292Z,88.16
2018-04-07T02:05:26.283Z,86.34
2018-04-07T02:07:54.013Z,87.51
2018-04-07T02:10:21.599Z,87.88
2018-04-07T02:12:49.180Z,88.77
2018-04-07T02:15:16.972Z,90.03
2018-04-07T02:17:46.378Z,89.73
2018-04-07T02:20:13.896Z,91.64
2018-04-07T02:22:41.449Z,91.45
2018-04-07T02:25:09.068Z,89.81
2018-04-07T02:27:36.817Z,88.73
2018-04-07T02:30:04.538Z,91.37
2018-04-07T02:32:32.055Z,91.51
2018-04-07T02:34:59.620Z,91.17
2018-04-07T02:37:27.218Z,90.51
2018-04-07T02:39:54.944Z,90.23
2018-04-07T02:42:22.584Z,90.67
2018-04-07T02:44:50.410Z,88.76
2018-04-07T02:47:18.037Z,88.83
2018-04-07T02:49:45.892Z,89.62
2018-04-07T02:52:13.432Z,90.01
2018-04-07T02:54:40.955Z,91.81
2018-04-07T02:57:08.519Z,92.36
2018-04-07T02:59:38.377Z,92.18
2018-04-07T03:02:05.988Z,92.08
2018-04-07T03:04:33.647Z,91.82
2018-04-07T03:07:01.281Z,92.94
2018-04-07T03:09:30.588Z,92.84
2018-04-07T03:11:59.218Z,93.51
2018-04-07T03:14:26.754Z,93.70
2018-04-07T03:16:59.330Z,93.86
2018-04-07T03:19:28.138Z,94.32
2018-04-07T03:21:55.922Z,93.50
2018-04-07T03:24:24.072Z,92.88
2018-04-07T03:26:53.242Z,92.10
2018-04-07T03:29:22.667Z,92.94
2018-04-07T03:31:50.254Z,93.92
2018-04-07T03:34:19.345Z,93.55
2018-04-07T03:36:47.180Z,93.52
2018-04-07T03:39:15.862Z,93.24
2018-04-07T03:41:43.441Z,92.88
2018-04-07T03:44:11.017Z,92.65
2018-04-07T03:46:38.887Z,92.35
2018-04-07T03:49:06.439Z,92.30
2018-04-07T03:51:34.084Z,91.89
2018-04-07T03:54:01.608Z,92.16
2018-04-07T03:56:29.173Z,93.55
2018-04-07T03:58:56.867Z,94.24
2018-04-07T04:01:25.213Z,94.75
2018-04-07T04:03:52.760Z,95.03
2018-04-07T04:06:20.473Z,94.86
2018-04-07T04:08:48.159Z,94.16
2018-04-07T04:11:15.707Z,92.71
2018-04-07T04:13:43.423Z,92.14
2018-04-07T04:16:11.008Z,93.19
2018-04-07T04:18:38.604Z,93.56
2018-04-07T04:21:06.243Z,93.62
2018-04-07T04:23:33.803Z,93.94
2018-04-07T04:26:01.414Z,93.40
2018-04-07T04:28:29.020Z,93.43
2018-04-07T04:30:56.602Z,94.28
2018-04-07T04:33:25.303Z,93.64
2018-04-07T04:35:52.955Z,92.98
2018-04-07T04:38:20.581Z,92.44
2018-04-07T04:40:48.163Z,92.17
2018-04-07T04:43:15.742Z,91.51
2018-04-07T04:45:43.364Z,92.15
2018-04-07T04:48:11.113Z,92.63
2018-04-07T04:50:38.704Z,90.97
2018-04-07T04:53:06.239Z,90.96
2018-04-07T04:55:33.823Z,91.62
2018-04-07T04:58:01.475Z,92.37
2018-04-07T05:00:29.293Z,92.92
2018-04-07T05:02:58.139Z,92.62
2018-04-07T05:05:26.322Z,91.23
2018-04-07T05:07:53.976Z,90.31
2018-04-07T05:10:21.500Z,92.22
2018-04-07T05:12:51.769Z,93.33
2018-04-07T05:15:19.475Z,92.84
2018-04-07T05:17:46.998Z,90.83
2018-04-07T05:20:14.548Z,89.97
2018-04-07T05:22:42.180Z,91.01
2018-04-07T05:25:09.839Z,91.51
2018-04-07T05:27:37.530Z,90.09
2018-04-07T05:30:05.450Z,88.76
2018-04-07T05:32:33.643Z,87.75
2018-04-07T05:35:01.272Z,86.86
2018-04-07T05:37:28.960Z,85.89
2018-04-07T05:39:56.498Z,84.79
2018-04-07T05:42:24.092Z,85.54
2018-04-07T05:44:51.856Z,85.88
2018-04-07T05:47:19.520Z,84.54
2018-04-07T05:49:47.052Z,84.01
2018-04-07T05:52:14.654Z,83.56
2018-04-07T05:54:42.292Z,85.94
2018-04-07T05:57:10.008Z,84.01
2018-04-07T05:59:37.565Z,81.74
2018-04-07T06:02:05.243Z,83.18
2018-04-07T06:04:32.933Z,83.48
2018-04-07T06:07:00.539Z,84.95
2018-04-07T06:09:28.238Z,83.18
2018-04-07T06:11:55.778Z,79.69
2018-04-07T06:14:23.465Z,77.86
2018-04-07T06:16:51.320Z,77.11
2018-04-07T06:19:18.870Z,78.83
2018-04-07T06:21:46.400Z,79.84
2018-04-07T06:24:13.974Z,79.43
2018-04-07T06:26:41.504Z,75.75
2018-04-07T06:29:09.113Z,74.43
2018-04-07T06:31:36.642Z,75.08
2018-04-07T06:34:04.474Z,74.77
2018-04-07T06:36:32.140Z,74.42
2018-04-07T06:38:59.660Z,73.41
2018-04-07T06:41:27.246Z,71.88
2018-04-07T06:43:54.782Z,70.28
2018-04-07T06:46:22.350Z,67.01
2018-04-07T06:48:49.978Z,66.96
2018-04-07T06:51:17.499Z,64.89
2018-04-07T06:53:45.134Z,65.72
2018-04-07T06:56:12.669Z,65.45
2018-04-07T06:58:40.220Z,64.01
2018-04-07T07:01:07.940Z,64.65
2018-04-07T07:03:35.469Z,64.14
2018-04-07T07:06:03.743Z,61.80
2018-04-07T07:08:31.432Z,63.04
2018-04-07T07:10:59.091Z,65.92
2018-04-07T07:13:26.751Z,63.02
2018-04-07T07:15:54.588Z,62.28
2018-04-07T07:18:22.244Z,59.79
2018-04-07T07:20:49.899Z,57.45
2018-04-07T07:23:17.464Z,57.81
2018-04-07T07:25:45.004Z,56.12
2018-04-07T07:28:12.769Z,55.46
2018-04-07T07:30:40.314Z,55.42
2018-04-07T07:33:07.890Z,55.58
2018-04-07T07:35:35.678Z,53.33
2018-04-07T07:38:03.232Z,54.72
2018-04-07T07:40:30.778Z,56.02
2018-04-07T07:42:58.356Z,52.30
2018-04-07T07:45:25.909Z,57.11
2018-04-07T07:47:53.425Z,58.08
2018-04-07T07:50:21.237Z,55.03
2018-04-07T07:52:48.813Z,55.02
2018-04-07T07:55:16.443Z,53.26
2018-04-07T07:57:43.990Z,51.91
2018-04-07T08:00:11.618Z,49.68
2018-04-07T08:02:39.225Z,50.57
2018-04-07T08:05:06.885Z,48.16
2018-04-07T08:07:34.404Z,51.48
2018-04-07T08:10:01.970Z,48.71
2018-04-07T08:12:29.490Z,44.57
2018-04-07T08:14:57.025Z,46.36
2018-04-07T08:17:24.674Z,44.32
2018-04-07T08:19:52.295Z,43.70
2018-04-07T08:22:20.016Z,47.85
2018-04-07T08:24:47.695Z,44.25
2018-04-07T08:27:15.332Z,43.17
2018-04-07T08:29:42.866Z,40.96
2018-04-07T08:32:10.430Z,44.30
2018-04-07T08:34:38.021Z,41.31
2018-04-07T08:37:05.573Z,41.52
2018-04-07T08:39:33.159Z,41.00
2018-04-07T08:42:00.786Z,37.74
2018-04-07T08:44:28.421Z,42.00
2018-04-07T08:46:56.223Z,38.68
2018-04-07T08:49:23.837Z,42.69
2018-04-07T08:51:51.380Z,44.93
2018-04-07T08:54:19.008Z,39.90
2018-04-07T08:56:46.616Z,38.85
2018-04-07T08:59:14.243Z,36.39
2018-04-07T09:01:41.855Z,33.96
2018-04-07T09:04:09.399Z,37.00
2018-04-07T09:06:37.324Z,34.95
2018-04-07T09:09:04.929Z,37.29
2018-04-07T09:11:32.554Z,35.63
2018-04-07T09:14:00.319Z,32.36
2018-04-07T09:16:27.965Z,30.03
2018-04-07T09:18:55.515Z,29.52
2018-04-07T09:21:23.105Z,32.14
2018-04-07T09:23:50.751Z,31.29
2018-04-07T09:26:18.439Z,30.55
2018-04-07T09:28:46.083Z,31.72
2018-04-07T09:31:19.155Z,31.56
2018-04-07T09:33:46.699Z,31.64
2018-04-07T09:36:14.437Z,31.02
2018-04-07T09:38:42.010Z,31.66
2018-04-07T09:41:09.560Z,31.42
2018-04-07T09:43:37.100Z,29.00
2018-04-07T09:46:04.716Z,23.77
2018-04-07T09:48:32.280Z,26.01
2018-04-07T09:50:59.810Z,23.90
2018-04-07T09:53:27.410Z,21.43
2018-04-07T09:55:55.042Z,24.86
2018-04-07T09:58:22.805Z,23.10
2018-04-07T10:00:50.385Z,21.89
2018-04-07T10:03:21.820Z,21.63
2018-04-07T10:05:49.481Z,22.35
2018-04-07T10:08:18.042Z,23.64
2018-04-07T10:10:45.760Z,25.74
2018-04-07T10:13:13.295Z,23.29
2018-04-07T10:15:40.836Z,22.67
2018-04-07T10:18:08.436Z,23.34
2018-04-07T10:20:36.094Z,24.08
2018-04-07T10:23:03.712Z,25.15
2018-04-07T10:25:31.404Z,24.54
2018-04-07T10:27:58.963Z,22.80
2018-04-07T10:30:26.932Z,21.31
2018-04-07T10:32:54.490Z,20.80
2018-04-07T10:35:22.037Z,21.11
2018-04-07T10:37:49.766Z,18.83
2018-04-07T10:40:17.410Z,20.69
2018-04-07T10:42:45.285Z,17.42
2018-04-07T10:45:12.829Z,18.37
2018-04-07T10:47:40.486Z,21.07
2018-04-07T10:50:08.221Z,19.99
2018-04-07T10:52:35.890Z,18.28
2018-04-07T10:55:03.540Z,17.10
2018-04-07T10:57:31.140Z,17.69
2018-04-07T10:59:58.728Z,19.81
2018-04-07T11:02:26.262Z,18.75
2018-04-07T11:04:53.805Z,22.17
2018-04-07T11:07:23.027Z,20.14
2018-04-07T11:09:50.815Z,20.92
2018-04-07T11:12:18.481Z,19.12
2018-04-07T11:14:46.082Z,19.30
2018-04-07T11:17:13.730Z,16.52
2018-04-07T11:19:41.401Z,15.64
2018-04-07T11:22:09.041Z,17.74
2018-04-07T11:24:36.620Z,14.90
2018-04-07T11:27:04.412Z,13.59
2018-04-07T11:29:31.935Z,14.17
2018-04-07T11:31:59.462Z,14.03
2018-04-07T11:34:27.022Z,14.31
2018-04-07T11:36:54.562Z,12.82
2018-04-07T11:39:22.122Z,16.06
2018-04-07T11:41:49.711Z,13.95
2018-04-07T11:44:17.338Z,14.25
2018-04-07T11:46:44.895Z,13.69
2018-04-07T11:49:12.501Z,12.94
2018-04-07T11:51:40.118Z,13.16
2018-04-07T11:54:07.757Z,13.43
2018-04-07T11:56:35.296Z,12.81
2018-04-07T11:59:02.975Z,14.47
2018-04-07T12:01:30.651Z,15.42
2018-04-07T12:03:58.287Z,13.33
2018-04-07T12:06:26.499Z,12.01
2018-04-07T12:08:54.042Z,11.78
2018-04-07T12:11:21.607Z,11.05
2018-04-07T12:13:49.143Z,12.43
2018-04-07T12:16:16.856Z,11.99
2018-04-07T12:18:44.540Z,12.57
2018-04-07T12:21:12.097Z,10.60
2018-04-07T12:23:39.637Z,11.92
2018-04-07T12:26:07.275Z,16.95
2018-04-07T12:28:34.846Z,16.71
2018-04-07T12:31:02.472Z,15.08
2018-04-07T12:33:30.010Z,14.58
2018-04-07T12:35:57.594Z,12.51
2018-04-07T12:38:25.147Z,15.43
2018-04-07T12:40:52.945Z,15.06
2018-04-07T12:43:20.621Z,17.46
2018-04-07T12:45:48.297Z,18.41
2018-04-07T12:48:15.903Z,17.62
2018-04-07T12:50:43.562Z,18.42
2018-04-07T12:53:11.101Z,18.17
2018-04-07T12:55:38.656Z,17.00
2018-04-07T12:58:06.230Z,17.25
2018-04-07T13:00:33.782Z,16.56
2018-04-07T13:03:01.395Z,16.56
2018-04-07T13:05:29.012Z,16.09
2018-04-07T13:07:56.791Z,15.67
2018-04-07T13:10:24.316Z,15.12
2018-04-07T13:12:51.966Z,16.46
2018-04-07T13:15:19.686Z,14.68
2018-04-07T13:17:47.225Z,12.96
2018-04-07T13:20:14.781Z,13.61
2018-04-07T13:22:42.426Z,14.29
2018-04-07T13:25:09.981Z,13.29
2018-04-07T13:27:37.521Z,14.47
2018-04-07T13:30:05.120Z,12.54
2018-04-07T13:32:32.659Z,11.65
2018-04-07T13:35:00.250Z,11.73
2018-04-07T13:37:28.036Z,11.07
2018-04-07T13:39:55.662Z,9.09
2018-04-07T13:42:23.301Z,10.70
2018-04-07T13:44:51.627Z,11.49
2018-04-07T13:47:19.363Z,11.31
2018-04-07T13:49:47.011Z,11.45
2018-04-07T13:52:14.645Z,11.56
2018-04-07T13:54:42.181Z,13.14
2018-04-07T13:57:09.956Z,13.52
2018-04-07T13:59:37.547Z,15.73
2018-04-07T14:02:05.126Z,15.58
2018-04-07T14:04:32.657Z,15.42
2018-04-07T14:07:00.271Z,15.68
2018-04-07T14:09:27.808Z,16.98
2018-04-07T14:15:19.052Z,16.65
2018-04-07T14:17:46.681Z,16.75
2018-04-07T14:20:14.196Z,16.40
2018-04-07T14:22:41.746Z,18.00
2018-04-07T14:25:09.336Z,16.20
2018-04-07T14:27:36.987Z,16.02
2018-04-07T14:30:04.631Z,17.00
2018-04-07T14:32:32.160Z,16.78
2018-04-07T14:34:59.651Z,17.64
2018-04-07T14:37:27.252Z,17.17
2018-04-07T14:39:54.935Z,18.42
2018-04-07T14:42:22.477Z,18.27
2018-04-07T14:44:50.039Z,15.91
2018-04-07T14:47:17.708Z,15.18
2018-04-07T14:49:45.276Z,16.11
2018-04-07T14:52:12.790Z,16.50
2018-04-07T14:54:40.358Z,16.33
2018-04-07T14:57:07.966Z,16.30
2018-04-07T14:59:35.500Z,16.28
2018-04-07T15:02:03.132Z,15.79
2018-04-07T15:04:30.888Z,17.23
2018-04-07T15:06:58.505Z,17.21
2018-04-07T15:09:26.256Z,18.25
2018-04-07T15:11:53.796Z,18.10
2018-04-07T15:14:21.442Z,17.74
2018-04-07T15:16:50.037Z,18.04
2018-04-07T15:19:17.621Z,19.21
2018-04-07T15:21:48.393Z,18.68
2018-04-07T15:24:15.954Z,19.36
2018-04-07T15:26:43.506Z,19.59
2018-04-07T15:29:11.033Z,19.88
2018-04-07T15:31:38.622Z,19.64
2018-04-07T15:34:06.422Z,18.24
2018-04-07T15:36:33.953Z,18.88
2018-04-07T15:39:01.532Z,20.49
2018-04-07T15:41:29.348Z,18.62
2018-04-07T15:43:56.934Z,19.86
2018-04-07T15:46:24.507Z,18.34
2018-04-07T15:48:52.084Z,19.15
2018-04-07T15:51:19.668Z,19.56
2018-04-07T15:53:47.228Z,19.62
2018-04-07T15:56:14.817Z,19.20
2018-04-07T15:58:42.352Z,19.86
2018-04-07T16:01:10.066Z,21.57
2018-04-07T16:03:37.586Z,21.55
2018-04-07T16:06:05.131Z,20.15
2018-04-07T16:08:33.015Z,20.39
2018-04-07T16:11:00.748Z,19.93
2018-04-07T16:13:28.332Z,19.69
2018-04-07T16:15:55.907Z,20.31
2018-04-07T16:18:23.639Z,21.81
2018-04-07T16:20:51.211Z,20.37
2018-04-07T16:23:18.823Z,20.47
2018-04-07T16:25:46.442Z,21.08
2018-04-07T16:28:14.211Z,19.71
2018-04-07T16:30:41.778Z,19.66
2018-04-07T16:33:09.338Z,20.19
2018-04-07T16:35:36.891Z,20.23
2018-04-07T16:38:04.539Z,20.85
2018-04-07T16:40:32.092Z,20.52
2018-04-07T16:42:59.717Z,23.01
2018-04-07T16:45:27.364Z,22.08
2018-04-07T16:47:54.927Z,23.17
2018-04-07T16:50:22.479Z,24.03
2018-04-07T16:52:50.072Z,24.70
2018-04-07T16:55:18.508Z,25.12
2018-04-07T16:57:46.144Z,25.34
2018-04-07T17:00:13.923Z,25.51
2018-04-07T17:02:41.504Z,25.71
2018-04-07T17:05:09.124Z,26.88
2018-04-07T17:07:36.732Z,26.89
2018-04-07T17:10:04.342Z,27.62
2018-04-07T17:12:31.904Z,28.55
2018-04-07T17:14:59.458Z,27.65
2018-04-07T17:17:27.005Z,29.20
2018-04-07T17:19:54.602Z,28.75
2018-04-07T17:22:22.196Z,28.83
2018-04-07T17:24:49.777Z,29.95
2018-04-07T17:27:17.312Z,32.34
2018-04-07T17:29:44.908Z,33.16
2018-04-07T17:32:12.502Z,34.16
2018-04-07T17:34:40.097Z,33.75
2018-04-07T17:37:07.636Z,35.06
2018-04-07T17:39:35.209Z,36.10
2018-04-07T17:42:02.729Z,36.13
2018-04-07T17:44:30.261Z,38.78
2018-04-07T17:46:57.988Z,39.06
2018-04-07T17:49:25.518Z,36.52
2018-04-07T17:51:53.054Z,40.30
2018-04-07T17:54:20.652Z,41.30
2018-04-07T17:56:48.262Z,41.84
2018-04-07T17:59:15.944Z,42.79
2018-04-07T18:01:43.544Z,43.12
2018-04-07T18:04:11.095Z,43.96
2018-04-07T18:06:38.622Z,45.13
2018-04-07T18:09:06.162Z,46.77
2018-04-07T18:11:33.836Z,45.53
2018-04-07T18:14:03.248Z,46.47
2018-04-07T18:16:30.903Z,46.20
2018-04-07T18:18:58.489Z,47.74
2018-04-07T18:21:26.042Z,48.36
2018-04-07T18:23:53.599Z,46.98
2018-04-07T18:26:22.239Z,48.34
2018-04-07T18:28:49.863Z,49.42
2018-04-07T18:31:17.437Z,50.94
2018-04-07T18:33:45.063Z,49.95
2018-04-07T18:36:12.599Z,51.56
2018-04-07T18:38:40.247Z,51.06
2018-04-07T18:41:07.804Z,52.61
2018-04-07T18:43:35.457Z,51.32
2018-04-07T18:46:03.201Z,54.90
2018-04-07T18:48:30.730Z,56.05
2018-04-07T18:50:58.274Z,55.13
2018-04-07T18:53:25.914Z,53.15
2018-04-07T18:55:53.467Z,53.40
2018-04-07T18:58:21.124Z,57.75
2018-04-07T19:00:48.689Z,55.88
2018-04-07T19:03:16.260Z,57.59
2018-04-07T19:05:43.908Z,57.33
2018-04-07T19:08:11.555Z,56.03
2018-04-07T19:10:39.256Z,57.57
2018-04-07T19:13:06.778Z,59.44
2018-04-07T19:15:34.429Z,58.65
2018-04-07T19:18:02.028Z,56.81
2018-04-07T19:20:29.773Z,58.36
2018-04-07T19:22:57.912Z,58.46
2018-04-07T19:25:25.437Z,59.55
2018-04-07T19:27:52.959Z,58.78
2018-04-07T19:30:20.596Z,59.10
2018-04-07T19:32:48.170Z,58.01
2018-04-07T19:35:15.979Z,58.71
2018-04-07T19:37:43.560Z,63.79
2018-04-07T19:40:11.209Z,63.23
2018-04-07T19:42:38.854Z,62.35
2018-04-07T19:45:06.414Z,60.21
2018-04-07T19:47:33.949Z,64.56
2018-04-07T19:50:01.490Z,65.64
2018-04-07T19:52:29.054Z,65.95
2018-04-07T19:54:56.609Z,64.57
2018-04-07T19:57:24.200Z,64.49
2018-04-07T19:59:51.828Z,64.29
2018-04-07T20:02:19.577Z,64.33
2018-04-07T20:04:47.113Z,65.36
2018-04-07T20:07:14.711Z,65.74
2018-04-07T20:09:42.283Z,65.03
2018-04-07T20:12:09.838Z,67.03
2018-04-07T20:14:40.020Z,68.36
2018-04-07T20:17:07.600Z,68.95
2018-04-07T20:19:35.246Z,66.78
2018-04-07T20:22:02.883Z,67.35
2018-04-07T20:24:30.425Z,68.00
2018-04-07T20:26:58.103Z,68.00
2018-04-07T20:29:25.750Z,67.93
2018-04-07T20:31:53.527Z,67.51
2018-04-07T20:34:21.161Z,69.91
2018-04-07T20:36:48.735Z,70.97
2018-04-07T20:39:16.418Z,69.74
2018-04-07T20:41:44.119Z,68.97
2018-04-07T20:44:11.723Z,68.55
2018-04-07T20:46:39.395Z,70.43
2018-04-07T20:49:07.159Z,71.66
2018-04-07T20:51:34.829Z,73.86
2018-04-07T20:54:02.604Z,72.27
2018-04-07T20:56:30.174Z,71.76
2018-04-07T20:58:57.776Z,71.60
2018-04-07T21:01:25.421Z,72.13
2018-04-07T21:03:52.989Z,72.94
2018-04-07T21:06:21.118Z,72.24
2018-04-07T21:08:48.868Z,73.60
2018-04-07T21:11:16.504Z,76.77
2018-04-07T21:13:44.083Z,77.30
2018-04-07T21:16:11.764Z,75.49
2018-04-07T21:18:39.529Z,76.02
2018-04-07T21:21:07.092Z,76.78
2018-04-07T21:23:34.816Z,76.54
2018-04-07T21:26:02.409Z,77.20
2018-04-07T21:28:30.016Z,76.25
2018-04-07T21:30:57.630Z,77.27
2018-04-07T21:33:25.224Z,76.01
2018-04-07T21:35:53.146Z,74.97
2018-04-07T21:38:20.727Z,76.07
2018-04-07T21:40:48.261Z,76.61
2018-04-07T21:43:15.856Z,77.67
2018-04-07T21:45:43.451Z,77.03
2018-04-07T21:48:11.021Z,77.56
2018-04-07T21:50:38.698Z,74.99
2018-04-07T21:53:06.504Z,73.01
2018-04-07T21:55:34.038Z,75.05
2018-04-07T21:58:01.716Z,76.77
2018-04-07T22:00:29.544Z,76.99
2018-04-07T22:02:57.143Z,77.29
2018-04-07T22:05:24.844Z,79.27
2018-04-07T22:07:52.440Z,76.42
2018-04-07T22:10:19.984Z,76.83
2018-04-07T22:12:47.579Z,76.50
2018-04-07T22:15:15.394Z,77.99
2018-04-07T22:17:43.096Z,77.32
2018-04-07T22:20:10.779Z,77.95
2018-04-07T22:22:38.515Z,76.81
2018-04-07T22:25:06.266Z,76.87
2018-04-07T22:27:34.146Z,78.28
2018-04-07T22:30:01.860Z,78.61
2018-04-07T22:32:29.416Z,76.74
2018-04-07T22:34:56.946Z,77.50
2018-04-07T22:37:24.484Z,76.54
2018-04-07T22:39:52.156Z,78.59
2018-04-07T22:42:19.737Z,79.58
2018-04-07T22:44:47.331Z,78.40
2018-04-07T22:47:14.884Z,79.15
2018-04-07T22:49:42.403Z,78.50
2018-04-07T22:52:10.060Z,76.51
2018-04-07T22:54:37.639Z,78.67
2018-04-07T22:57:05.238Z,79.07
2018-04-07T22:59:32.909Z,77.29
2018-04-07T23:02:00.577Z,77.45
2018-04-07T23:04:28.099Z,79.44
2018-04-07T23:06:55.696Z,76.91
2018-04-07T23:09:23.224Z,75.54
2018-04-07T23:11:50.795Z,77.74
2018-04-07T23:14:18.321Z,80.61
2018-04-07T23:16:46.005Z,80.95
2018-04-07T23:19:13.576Z,81.48
2018-04-07T23:21:41.202Z,82.27
2018-04-07T23:24:08.722Z,82.14
2018-04-07T23:26:36.247Z,82.73
2018-04-07T23:29:03.886Z,82.96
2018-04-07T23:31:31.419Z,81.58
2018-04-07T23:33:59.028Z,80.55
2018-04-07T23:36:26.624Z,80.80
2018-04-07T23:38:54.449Z,82.25
2018-04-07T23:41:22.740Z,82.62
2018-04-07T23:43:50.350Z,81.76
2018-04-07T23:46:17.955Z,81.93
2018-04-07T23:48:45.546Z,81.44
2018-04-07T23:51:13.089Z,82.56
2018-04-07T23:53:40.606Z,83.23
2018-04-07T23:56:08.140Z,81.95
2018-04-07T23:58:35.649Z,81.60
